Etusivu
METAR-TAF:

METAR-TAF

Lentoasemat :

Defiance Memorial Airport

Defiance, Ohio, Yhdysvallat

Leveyspiiri: 41-20-11N, Pituuspiiri: 084-25-46W, korkeus merenpinnasta: 215 m

Tämänhetkinen sää

Tämä raportti tehtiin 47 minuuttia sitten, kello 19.53 UTC
Tuuli 4 kn pohjoisesta
Lämpötila 27°C
Kosteus 51%
Ilmanpaine 1013 hPa
Näkyvyys: 16.1 km
Hajonneita pilviä 3900 ft:n korkeudessa
Hajonneita pilviä 5000 ft:n korkeudessa

METAR: KDFI 181953Z AUTO 36004KT 10SM BKN039 BKN050 27/16 A2991 RMK AO2 SLP124 T02670161

Aika: 16:40 (20:40 UTC)


TAF: puuttuu

Säähavainnot ja -ennusteet yli 4000 lentoasemalta (METAR- ja TAF-raportit).

Käytössä olevat sääasemat on merkitty karttaan keltaisilla ja punaisilla pisteillä.

Aseta hiiri pisteen päälle nähdäksesi sääaseman nimen.

Klikkaa sitten nähdäksesi säähavainnot ja -ennusteet.

Kartan vaihtaminen: klikkaa mustalla rastilla varustettuja vihreitä pisteitä, niin voit zoomata sisään; viivalla varustettua vihreää pistettä, niin voit zoomata ulos tai vihreitä nuolia, niin pääset viereisille kartoille.


METAR-TAF: